Time;durP1;ratioP1;P1;durP2;ratioP2;P2;SDS_P1;SDS_P2;PMS_P1;PMS_P2;Temp;Humidity;BMP_temperature;BMP_pressure;BME280_temperature;BME280_humidity;BME280_pressure;Samples;Min_cycle;Max_cycle;Signal;HPM_P1;HPM_P2
2023/12/09 00:01:44;;;;;;;99.80;31.20;;;;;;;-3.82;100.00;100087.20;108857;1260;72708;-66
2023/12/09 00:04:31;;;;;;;95.60;28.80;;;;;;;-3.84;100.00;100081.17;108848;1260;59717;-67
2023/12/09 00:07:18;;;;;;;82.50;26.40;;;;;;;-3.85;100.00;100076.34;108228;1260;1002247;-66
2023/12/09 00:10:05;;;;;;;98.50;27.50;;;;;;;-3.84;100.00;100079.10;108991;1259;72686;-67
2023/12/09 00:12:51;;;;;;;97.30;29.10;;;;;;;-3.81;100.00;100075.23;108987;1259;69017;-68
2023/12/09 00:15:37;;;;;;;98.40;29.80;;;;;;;-3.80;100.00;100076.94;109065;1260;71746;-67
2023/12/09 00:18:24;;;;;;;93.70;28.10;;;;;;;-3.80;100.00;100070.70;109062;1258;56982;-66
2023/12/09 00:21:11;;;;;;;96.70;25.90;;;;;;;-3.81;100.00;100064.14;109080;1260;58917;-67
2023/12/09 00:23:59;;;;;;;81.30;24.30;;;;;;;-3.80;100.00;100068.45;108945;1258;71988;-68
2023/12/09 00:26:45;;;;;;;96.50;28.60;;;;;;;-3.80;100.00;100064.63;109115;1259;68938;-68
2023/12/09 00:29:32;;;;;;;89.70;26.50;;;;;;;-3.80;100.00;100061.52;108899;1259;71220;-69
2023/12/09 00:32:18;;;;;;;97.90;30.30;;;;;;;-3.82;100.00;100055.82;108971;1259;57238;-67
2023/12/09 00:35:05;;;;;;;95.80;27.00;;;;;;;-3.79;100.00;100047.80;109050;1259;58787;-70
2023/12/09 00:37:53;;;;;;;92.10;27.20;;;;;;;-3.78;100.00;100042.57;108976;1260;72088;-66
2023/12/09 00:40:39;;;;;;;91.30;28.40;;;;;;;-3.79;100.00;100049.02;109014;1259;68030;-66
2023/12/09 00:43:26;;;;;;;97.30;28.60;;;;;;;-3.79;100.00;100048.31;108952;1259;71645;-67
2023/12/09 00:46:12;;;;;;;96.80;30.50;;;;;;;-3.79;100.00;100045.53;108995;1260;57043;-67
2023/12/09 00:48:59;;;;;;;88.40;26.50;;;;;;;-3.81;100.00;100045.76;108333;1258;1002096;-67
2023/12/09 00:51:46;;;;;;;95.10;28.30;;;;;;;-3.81;100.00;100043.84;109104;1259;70767;-67
2023/12/09 00:54:32;;;;;;;87.40;27.80;;;;;;;-3.79;100.00;100047.79;109001;1259;67630;-67
2023/12/09 00:57:20;;;;;;;88.00;28.90;;;;;;;-3.79;100.00;100041.39;109011;1259;73613;-67
2023/12/09 01:00:07;;;;;;;86.80;25.50;;;;;;;-3.80;100.00;100041.57;109067;1260;57123;-67
2023/12/09 01:02:54;;;;;;;100.10;30.30;;;;;;;-3.79;100.00;100045.90;109049;1259;60095;-66
2023/12/09 01:05:41;;;;;;;89.00;26.10;;;;;;;-3.80;100.00;100048.32;108302;1259;1002786;-68
2023/12/09 01:08:29;;;;;;;97.50;29.30;;;;;;;-3.79;100.00;100042.92;108977;1260;67693;-69
2023/12/09 01:11:15;;;;;;;73.10;23.10;;;;;;;-3.77;100.00;100041.00;108240;1258;1002651;-66
2023/12/09 01:14:01;;;;;;;81.60;25.00;;;;;;;-3.77;100.00;100033.70;109108;1259;56917;-66
2023/12/09 01:16:48;;;;;;;81.90;25.80;;;;;;;-3.77;100.00;100039.45;108923;1260;60183;-66
2023/12/09 01:19:35;;;;;;;89.60;29.60;;;;;;;-3.79;100.00;100035.46;108944;1260;73014;-66
2023/12/09 01:22:21;;;;;;;88.00;25.80;;;;;;;-3.79;100.00;100024.73;108866;1263;67743;-69
2023/12/09 01:25:08;;;;;;;97.60;30.40;;;;;;;-3.77;100.00;100029.55;108755;1260;71165;-66
2023/12/09 01:27:55;;;;;;;95.40;29.50;;;;;;;-3.77;100.00;100034.59;108943;1260;57043;-68
2023/12/09 01:30:41;;;;;;;94.30;30.20;;;;;;;-3.75;100.00;100021.54;108893;1260;60140;-67
2023/12/09 01:33:28;;;;;;;81.10;23.60;;;;;;;-3.74;100.00;100018.91;108814;1260;72038;-66
2023/12/09 01:36:15;;;;;;;102.50;29.10;;;;;;;-3.75;100.00;100016.16;108947;1260;66692;-66
2023/12/09 01:39:02;;;;;;;91.30;28.20;;;;;;;-3.75;100.00;100015.63;108873;1260;72497;-67
2023/12/09 01:41:48;;;;;;;86.70;27.40;;;;;;;-3.75;100.00;100014.26;108107;1261;1003073;-68
2023/12/09 01:44:35;;;;;;;94.10;28.00;;;;;;;-3.73;100.00;100013.34;108925;1260;61355;-68
2023/12/09 01:47:22;;;;;;;92.30;29.10;;;;;;;-3.68;100.00;100019.32;108866;1260;73791;-67
2023/12/09 01:50:10;;;;;;;78.30;24.70;;;;;;;-3.72;100.00;100015.92;108951;1259;67619;-67
2023/12/09 01:52:58;;;;;;;84.60;26.80;;;;;;;-3.74;100.00;100009.55;109013;1259;71628;-67
2023/12/09 01:55:45;;;;;;;95.20;30.00;;;;;;;-3.73;100.00;100008.14;108811;1259;58783;-68
2023/12/09 01:58:33;;;;;;;83.60;26.90;;;;;;;-3.76;100.00;100008.73;109078;1259;60152;-67
2023/12/09 02:01:20;;;;;;;81.90;25.50;;;;;;;-3.76;100.00;99996.58;108982;1258;72029;-68
2023/12/09 02:04:07;;;;;;;93.20;29.60;;;;;;;-3.79;100.00;99996.64;108973;1259;67766;-66
2023/12/09 02:06:53;;;;;;;87.50;27.50;;;;;;;-3.78;100.00;99985.18;109008;1258;72743;-67
2023/12/09 02:09:40;;;;;;;61.30;19.30;;;;;;;-3.77;100.00;99986.37;109084;1258;56804;-67
2023/12/09 02:12:47;;;;;;;75.30;23.30;;;;;;;-3.78;100.00;99988.13;109009;1259;60146;-66
2023/12/09 02:15:47;;;;;;;86.70;27.40;;;;;;;-3.78;100.00;99988.66;108965;1259;72303;-65
2023/12/09 02:18:35;;;;;;;99.90;28.30;;;;;;;-3.74;100.00;99983.73;109035;1259;68696;-65
2023/12/09 02:21:22;;;;;;;84.50;26.00;;;;;;;-3.74;100.00;99982.85;109067;1258;72286;-66
2023/12/09 02:24:10;;;;;;;92.60;27.90;;;;;;;-3.72;100.00;99970.33;109077;1259;56926;-67
2023/12/09 02:27:27;;;;;;;83.40;28.40;;;;;;;-3.72;100.00;99958.35;109018;1259;60318;-67
2023/12/09 02:30:25;;;;;;;95.20;28.90;;;;;;;-3.71;100.00;99956.96;109018;1258;70977;-66
2023/12/09 02:33:14;;;;;;;93.30;28.40;;;;;;;-3.78;100.00;99953.27;108290;1258;1002585;-68
2023/12/09 02:36:03;;;;;;;78.60;27.30;;;;;;;-3.79;100.00;99966.48;109031;1259;72408;-66
2023/12/09 02:38:51;;;;;;;85.60;26.20;;;;;;;-3.84;100.00;99963.64;108947;1258;58557;-67
2023/12/09 02:41:40;;;;;;;73.40;21.60;;;;;;;-3.81;100.00;99954.39;108958;1259;61162;-66
2023/12/09 02:44:27;;;;;;;79.70;24.50;;;;;;;-3.81;100.00;99950.38;108992;1259;72011;-64
2023/12/09 02:47:14;;;;;;;84.30;25.90;;;;;;;-3.81;100.00;99949.70;109095;1258;66498;-66
2023/12/09 02:50:01;;;;;;;77.70;25.10;;;;;;;-3.80;100.00;99951.77;109080;1258;72553;-66
2023/12/09 02:52:47;;;;;;;83.60;25.40;;;;;;;-3.76;100.00;99953.59;108979;1259;57215;-66
2023/12/09 02:55:34;;;;;;;83.00;26.40;;;;;;;-3.74;100.00;99958.05;109091;1259;60183;-66
2023/12/09 02:58:20;;;;;;;79.00;25.20;;;;;;;-3.77;100.00;99956.70;108897;1262;72227;-66
2023/12/09 03:01:06;;;;;;;78.00;25.70;;;;;;;-3.76;100.00;99948.89;109040;1258;66878;-66
2023/12/09 03:03:53;;;;;;;80.30;25.70;;;;;;;-3.74;100.00;99942.27;109047;1258;71460;-64
2023/12/09 03:06:39;;;;;;;84.10;25.90;;;;;;;-3.74;100.00;99953.36;109062;1259;58636;-65
2023/12/09 03:09:28;;;;;;;78.70;26.50;;;;;;;-3.72;100.00;99956.97;108260;1259;1002798;-64
2023/12/09 03:12:15;;;;;;;69.90;23.90;;;;;;;-3.72;100.00;99952.12;109005;1259;70822;-66
2023/12/09 03:15:05;;;;;;;67.00;20.80;;;;;;;-3.78;100.00;99945.48;109049;1259;67598;-64
2023/12/09 03:17:52;;;;;;;87.80;25.60;;;;;;;-3.80;100.00;99935.64;108832;1258;71256;-66
2023/12/09 03:20:39;;;;;;;80.40;25.60;;;;;;;-3.81;100.00;99939.30;109064;1259;58523;-64
2023/12/09 03:23:26;;;;;;;83.70;24.80;;;;;;;-3.81;100.00;99935.15;109045;1259;58804;-66
2023/12/09 03:26:14;;;;;;;71.70;19.30;;;;;;;-3.81;100.00;99934.62;108293;1259;1002926;-67
2023/12/09 03:29:01;;;;;;;65.30;20.60;;;;;;;-3.87;100.00;99931.09;108257;1258;1003143;-66
2023/12/09 03:31:48;;;;;;;81.90;24.70;;;;;;;-3.84;100.00;99933.10;109008;1258;72411;-66
2023/12/09 03:34:35;;;;;;;74.80;23.80;;;;;;;-3.87;100.00;99944.27;109000;1259;57218;-65
2023/12/09 03:37:21;;;;;;;74.40;23.20;;;;;;;-3.87;100.00;99939.41;108246;1260;1002124;-67
2023/12/09 03:40:10;;;;;;;73.00;24.40;;;;;;;-3.87;100.00;99941.33;108996;1258;72018;-66
2023/12/09 03:42:56;;;;;;;63.70;21.30;;;;;;;-3.85;100.00;99932.80;108996;1259;67782;-67
2023/12/09 03:45:43;;;;;;;72.40;23.60;;;;;;;-3.83;100.00;99932.77;108941;1258;72652;-66
2023/12/09 03:48:31;;;;;;;73.50;24.80;;;;;;;-3.85;100.00;99928.11;109001;1258;56896;-66
2023/12/09 03:51:18;;;;;;;54.90;18.10;;;;;;;-3.85;100.00;99932.61;109011;1258;58773;-65
2023/12/09 03:54:04;;;;;;;79.90;25.40;;;;;;;-3.86;100.00;99928.64;108948;1259;70805;-67
2023/12/09 03:56:50;;;;;;;61.70;19.20;;;;;;;-3.87;100.00;99926.75;109110;1259;69007;-67
2023/12/09 03:59:42;;;;;;;72.60;21.00;;;;;;;-3.88;100.00;99934.75;109049;1259;72676;-65
2023/12/09 04:02:28;;;;;;;77.30;23.20;;;;;;;-3.86;100.00;99934.04;109071;1258;58810;-65
2023/12/09 04:05:15;;;;;;;75.20;23.60;;;;;;;-3.85;100.00;99932.08;108955;1259;59273;-65
2023/12/09 04:08:02;;;;;;;69.30;21.70;;;;;;;-3.82;100.00;99931.50;109017;1258;71437;-66
2023/12/09 04:10:48;;;;;;;76.30;23.80;;;;;;;-3.77;100.00;99920.14;109011;1259;67954;-65
2023/12/09 04:13:35;;;;;;;65.80;20.20;;;;;;;-3.76;100.00;99923.92;108979;1259;72569;-66
2023/12/09 04:16:23;;;;;;;69.90;21.40;;;;;;;-3.75;100.00;99918.36;109075;1258;57428;-65
2023/12/09 04:19:09;;;;;;;67.30;20.60;;;;;;;-3.72;100.00;99914.65;109007;1259;60151;-65
2023/12/09 04:21:57;;;;;;;69.50;21.90;;;;;;;-3.75;100.00;99912.63;108967;1259;70087;-66
2023/12/09 04:24:43;;;;;;;72.30;22.80;;;;;;;-3.78;100.00;99909.23;108976;1258;66601;-65
2023/12/09 04:27:29;;;;;;;72.30;22.60;;;;;;;-3.86;100.00;99896.23;109024;1259;70692;-66
2023/12/09 04:30:16;;;;;;;79.10;23.30;;;;;;;-3.81;100.00;99903.40;109031;1259;57500;-66
2023/12/09 04:33:04;;;;;;;62.40;18.40;;;;;;;-3.80;100.00;99901.30;109030;1259;60123;-67
2023/12/09 04:35:51;;;;;;;76.00;23.90;;;;;;;-3.78;100.00;99898.31;109107;1259;72397;-64
2023/12/09 04:38:38;;;;;;;70.80;22.40;;;;;;;-3.75;100.00;99902.41;109033;1259;66520;-66
2023/12/09 04:41:24;;;;;;;73.90;23.00;;;;;;;-3.76;100.00;99898.45;108887;1259;73595;-66
2023/12/09 04:44:11;;;;;;;72.30;23.10;;;;;;;-3.77;100.00;99900.70;109011;1258;56950;-64
2023/12/09 04:46:57;;;;;;;72.80;22.10;;;;;;;-3.77;100.00;99895.67;108979;1258;60094;-65
2023/12/09 04:49:43;;;;;;;68.60;22.70;;;;;;;-3.77;100.00;99896.36;109096;1258;71117;-66
2023/12/09 04:52:30;;;;;;;66.80;20.70;;;;;;;-3.77;100.00;99900.37;109086;1258;69183;-65
2023/12/09 04:55:17;;;;;;;73.50;22.10;;;;;;;-3.74;100.00;99909.33;108950;1258;72731;-67
2023/12/09 04:58:03;;;;;;;55.90;19.20;;;;;;;-3.72;100.00;99910.86;108910;1259;57057;-68
2023/12/09 05:00:50;;;;;;;72.80;21.20;;;;;;;-3.72;100.00;99907.71;109004;1258;60218;-66
2023/12/09 05:03:36;;;;;;;64.80;20.90;;;;;;;-3.72;100.00;99906.16;108993;1259;70103;-66
2023/12/09 05:06:23;;;;;;;72.60;22.50;;;;;;;-3.69;100.00;99896.73;109063;1259;66708;-68
2023/12/09 05:09:10;;;;;;;66.80;21.40;;;;;;;-3.65;100.00;99895.77;108982;1259;70426;-66
2023/12/09 05:11:56;;;;;;;64.30;20.40;;;;;;;-3.63;100.00;99894.68;109069;1259;57229;-70
2023/12/09 05:14:43;;;;;;;76.10;23.20;;;;;;;-3.65;100.00;99893.86;109072;1259;60188;-68
2023/12/09 05:17:30;;;;;;;71.70;21.80;;;;;;;-3.65;100.00;99891.79;108912;1259;70905;-67
2023/12/09 05:20:16;;;;;;;82.70;23.70;;;;;;;-3.64;100.00;99886.38;108240;1259;1002538;-70
2023/12/09 05:23:03;;;;;;;68.70;22.00;;;;;;;-3.65;100.00;99886.92;108897;1259;71497;-66
2023/12/09 05:25:53;;;;;;;68.50;21.40;;;;;;;-3.66;100.00;99882.61;108874;1258;59672;-64
2023/12/09 05:28:39;;;;;;;42.80;15.10;;;;;;;-3.64;100.00;99882.05;109030;1259;60072;-67
2023/12/09 05:31:26;;;;;;;67.10;20.80;;;;;;;-3.68;100.00;99883.87;109019;1258;72268;-67
2023/12/09 05:34:12;;;;;;;65.40;20.40;;;;;;;-3.67;100.00;99881.77;108970;1259;68038;-66
2023/12/09 05:36:59;;;;;;;70.30;21.60;;;;;;;-3.67;100.00;99883.50;108987;1259;72517;-69
2023/12/09 05:39:46;;;;;;;81.20;24.60;;;;;;;-3.66;100.00;99890.08;109051;1258;56949;-69
2023/12/09 05:42:33;;;;;;;72.60;22.80;;;;;;;-3.65;100.00;99888.16;108996;1259;60258;-67
2023/12/09 05:45:19;;;;;;;67.10;19.50;;;;;;;-3.64;100.00;99882.56;109042;1258;71788;-67
2023/12/09 05:48:06;;;;;;;59.80;17.30;;;;;;;-3.61;100.00;99881.29;108231;1259;1002577;-65
2023/12/09 05:50:53;;;;;;;66.50;21.90;;;;;;;-3.58;100.00;99879.84;108972;1259;71490;-65
2023/12/09 05:53:41;;;;;;;72.90;20.70;;;;;;;-3.56;100.00;99883.78;108980;1259;58225;-67
2023/12/09 05:56:28;;;;;;;64.80;19.50;;;;;;;-3.55;100.00;99886.20;109034;1258;61179;-68
2023/12/09 05:59:15;;;;;;;72.50;22.10;;;;;;;-3.56;100.00;99882.91;108931;1259;72069;-67
2023/12/09 06:02:03;;;;;;;71.50;20.30;;;;;;;-3.56;100.00;99882.73;108983;1259;67970;-69
2023/12/09 06:04:49;;;;;;;71.40;21.80;;;;;;;-3.56;100.00;99885.33;108850;1259;71136;-68
2023/12/09 06:07:36;;;;;;;63.70;17.60;;;;;;;-3.52;100.00;99888.04;108920;1260;58857;-67
2023/12/09 06:10:22;;;;;;;58.80;17.70;;;;;;;-3.48;100.00;99889.14;109000;1259;59195;-71
2023/12/09 06:13:09;;;;;;;62.70;17.60;;;;;;;-3.47;100.00;99899.88;108943;1259;70811;-69
2023/12/09 06:15:56;;;;;;;77.20;21.40;;;;;;;-3.48;100.00;99894.69;109016;1258;68598;-64
2023/12/09 06:18:43;;;;;;;83.50;25.30;;;;;;;-3.49;100.00;99887.25;108904;1258;72634;-67
2023/12/09 06:21:29;;;;;;;77.80;23.00;;;;;;;-3.51;100.00;99874.64;109013;1258;59214;-69
2023/12/09 06:24:16;;;;;;;72.10;21.20;;;;;;;-3.48;100.00;99883.77;108938;1258;59059;-66
2023/12/09 06:27:05;;;;;;;80.60;23.50;;;;;;;-3.48;100.00;99891.25;108839;1258;72173;-68
2023/12/09 06:29:52;;;;;;;81.70;23.50;;;;;;;-3.47;100.00;99892.60;109001;1259;66661;-67
2023/12/09 06:32:39;;;;;;;80.60;23.50;;;;;;;-3.43;100.00;99891.80;108945;1259;72665;-66
2023/12/09 06:35:25;;;;;;;78.40;23.60;;;;;;;-3.41;100.00;99882.04;108961;1258;57076;-64
2023/12/09 06:38:11;;;;;;;76.20;22.90;;;;;;;-3.38;100.00;99884.39;108929;1258;58805;-65
2023/12/09 06:40:58;;;;;;;85.00;24.00;;;;;;;-3.38;100.00;99892.55;108947;1259;72059;-69
2023/12/09 06:43:44;;;;;;;77.70;22.70;;;;;;;-3.37;100.00;99894.79;109024;1259;66752;-69
2023/12/09 06:46:31;;;;;;;84.30;24.70;;;;;;;-3.35;100.00;99894.93;108996;1258;71584;-67
2023/12/09 06:49:18;;;;;;;77.10;21.60;;;;;;;-3.35;100.00;99884.53;108966;1259;57272;-66
2023/12/09 06:52:05;;;;;;;74.20;23.60;;;;;;;-3.37;100.00;99886.14;108958;1259;60031;-66
2023/12/09 06:54:51;;;;;;;85.00;23.90;;;;;;;-3.36;100.00;99889.59;108231;1259;1002907;-66
2023/12/09 06:57:38;;;;;;;86.30;23.50;;;;;;;-3.38;100.00;99879.05;108946;1259;68816;-69
2023/12/09 07:00:25;;;;;;;74.40;23.20;;;;;;;-3.41;100.00;99878.93;108964;1259;71278;-67
2023/12/09 07:03:11;;;;;;;84.30;22.70;;;;;;;-3.45;100.00;99877.45;108929;1258;56896;-65
2023/12/09 07:05:58;;;;;;;79.70;21.70;;;;;;;-3.45;100.00;99876.25;109029;1259;58857;-71
2023/12/09 07:08:45;;;;;;;87.60;23.30;;;;;;;-3.45;100.00;99877.11;109069;1258;71972;-67
2023/12/09 07:11:32;;;;;;;79.60;22.70;;;;;;;-3.44;100.00;99875.02;108900;1259;66546;-68
2023/12/09 07:14:19;;;;;;;75.70;20.60;;;;;;;-3.42;100.00;99865.23;108262;1259;1002070;-67
2023/12/09 07:17:05;;;;;;;81.70;22.40;;;;;;;-3.42;100.00;99865.08;108987;1259;57535;-68
2023/12/09 07:19:52;;;;;;;69.20;21.30;;;;;;;-3.41;100.00;99865.40;109017;1258;60224;-67
2023/12/09 07:22:39;;;;;;;82.70;23.80;;;;;;;-3.39;100.00;99868.64;108819;1259;72128;-67
2023/12/09 07:25:27;;;;;;;79.00;23.60;;;;;;;-3.39;100.00;99871.77;109032;1258;66677;-66
2023/12/09 07:28:13;;;;;;;84.00;22.30;;;;;;;-3.42;100.00;99870.96;108970;1259;71643;-66
2023/12/09 07:31:00;;;;;;;52.70;15.90;;;;;;;-3.46;100.00;99860.14;108870;1259;57598;-68
2023/12/09 07:33:46;;;;;;;97.30;26.10;;;;;;;-3.45;100.00;99865.48;108994;1259;60126;-68
2023/12/09 07:36:33;;;;;;;90.30;23.80;;;;;;;-3.44;100.00;99864.77;108866;1258;70703;-68
2023/12/09 07:39:19;;;;;;;93.60;22.80;;;;;;;-3.40;100.00;99863.82;108911;1258;67060;-68
2023/12/09 07:42:05;;;;;;;83.60;24.20;;;;;;;-3.40;100.00;99852.20;108960;1259;73675;-68
2023/12/09 07:44:52;;;;;;;83.70;23.50;;;;;;;-3.34;100.00;99859.16;109054;1259;58493;-68
2023/12/09 07:47:39;;;;;;;85.70;22.50;;;;;;;-3.31;100.00;99854.41;109034;1258;58796;-68
2023/12/09 07:50:25;;;;;;;88.10;24.40;;;;;;;-3.28;100.00;99851.56;109008;1259;72308;-66
2023/12/09 07:53:13;;;;;;;80.50;22.80;;;;;;;-3.27;100.00;99851.19;109010;1259;68003;-68
2023/12/09 07:55:59;;;;;;;69.20;19.30;;;;;;;-3.28;100.00;99846.68;108942;1258;72556;-68
2023/12/09 07:58:46;;;;;;;95.20;26.60;;;;;;;-3.28;100.00;99846.85;108927;1258;59596;-68
2023/12/09 08:01:33;;;;;;;77.80;21.20;;;;;;;-3.28;100.00;99846.68;108964;1258;60111;-68
2023/12/09 08:04:20;;;;;;;93.20;25.20;;;;;;;-3.29;100.00;99850.70;108236;1258;1002975;-68
2023/12/09 08:07:07;;;;;;;90.30;24.30;;;;;;;-3.26;100.00;99842.13;109020;1258;67955;-70
2023/12/09 08:09:54;;;;;;;77.70;19.80;;;;;;;-3.23;100.00;99838.23;108200;1258;1002460;-69
2023/12/09 08:12:40;;;;;;;85.40;23.70;;;;;;;-3.21;100.00;99837.67;108947;1258;58615;-67
2023/12/09 08:15:28;;;;;;;76.30;20.30;;;;;;;-3.18;100.00;99836.21;108844;1258;223916;-69
2023/12/09 08:18:14;;;;;;;84.80;21.70;;;;;;;-3.16;100.00;99840.16;108142;1258;1002563;-71
2023/12/09 08:21:02;;;;;;;79.30;23.10;;;;;;;-3.17;100.00;99839.33;108943;1259;67645;-68
2023/12/09 08:23:48;;;;;;;84.20;23.80;;;;;;;-3.09;100.00;99849.89;108902;1259;72353;-72
2023/12/09 08:26:36;;;;;;;85.80;22.40;;;;;;;-3.08;100.00;99845.52;108212;1258;1002879;-69
2023/12/09 08:29:23;;;;;;;87.40;23.30;;;;;;;-3.04;100.00;99842.30;108953;1259;60121;-67
2023/12/09 08:32:13;;;;;;;83.50;24.20;;;;;;;-3.02;100.00;99838.44;109011;1259;72255;-69
2023/12/09 08:35:00;;;;;;;81.30;23.50;;;;;;;-2.99;100.00;99840.77;108987;1258;65410;-72
2023/12/09 08:37:57;;;;;;;73.40;23.40;;;;;;;-3.00;100.00;99838.71;109023;1258;71664;-67
2023/12/09 08:40:43;;;;;;;71.40;21.00;;;;;;;-2.99;100.00;99840.42;107476;1259;1002969;-65
2023/12/09 08:43:29;;;;;;;76.50;22.10;;;;;;;-2.97;100.00;99841.23;109033;1259;61106;-68
2023/12/09 08:46:16;;;;;;;85.00;22.30;;;;;;;-2.96;100.00;99826.45;108978;1258;72038;-68
2023/12/09 08:49:03;;;;;;;77.50;22.40;;;;;;;-2.93;100.00;99825.52;108986;1259;68817;-68
2023/12/09 08:51:50;;;;;;;74.50;22.00;;;;;;;-2.90;100.00;99823.89;108891;1258;72546;-67
2023/12/09 08:54:36;;;;;;;80.50;20.70;;;;;;;-2.91;100.00;99821.83;109030;1258;58862;-69
2023/12/09 08:57:24;;;;;;;83.00;23.80;;;;;;;-2.90;100.00;99819.52;108994;1259;60145;-67
2023/12/09 09:00:12;;;;;;;76.00;22.90;;;;;;;-2.87;100.00;99813.38;108968;1258;71953;-67
2023/12/09 09:02:58;;;;;;;78.10;21.30;;;;;;;-2.87;100.00;99811.12;109013;1259;69061;-68
2023/12/09 09:05:45;;;;;;;73.20;21.00;;;;;;;-2.84;100.00;99809.30;109003;1259;71129;-70
2023/12/09 09:08:31;;;;;;;84.20;22.50;;;;;;;-2.83;100.00;99807.88;109005;1258;57390;-70
2023/12/09 09:11:18;;;;;;;82.30;22.40;;;;;;;-2.81;100.00;99802.45;108964;1258;58877;-65
2023/12/09 09:14:04;;;;;;;77.00;22.30;;;;;;;-2.80;100.00;99800.70;108869;1258;70787;-71
2023/12/09 09:16:51;;;;;;;73.00;21.20;;;;;;;-2.83;100.00;99789.47;108887;1259;67988;-65
2023/12/09 09:19:38;;;;;;;78.10;22.10;;;;;;;-2.77;100.00;99794.52;108968;1259;72748;-67
2023/12/09 09:22:24;;;;;;;69.00;19.40;;;;;;;-2.74;100.00;99790.98;108229;1258;1002543;-67
2023/12/09 09:25:12;;;;;;;73.80;19.70;;;;;;;-2.75;100.00;99788.39;108970;1258;60308;-68
2023/12/09 09:27:58;;;;;;;54.00;16.00;;;;;;;-2.72;100.00;99782.92;108254;1260;1002353;-68
2023/12/09 09:30:45;;;;;;;84.90;24.10;;;;;;;-2.71;100.00;99777.35;108993;1259;68672;-67
2023/12/09 09:33:32;;;;;;;76.70;22.40;;;;;;;-2.72;100.00;99779.10;109038;1262;72779;-69
2023/12/09 09:36:22;;;;;;;82.50;22.30;;;;;;;-2.69;100.00;99771.73;109013;1259;58829;-68
2023/12/09 09:39:11;;;;;;;74.70;22.10;;;;;;;-2.65;100.00;99778.55;108965;1258;58185;-72
2023/12/09 09:42:37;;;;;;;78.60;22.10;;;;;;;-2.65;100.00;99765.71;109036;1258;72224;-67
2023/12/09 09:45:26;;;;;;;84.00;23.30;;;;;;;-2.77;100.00;99758.23;109074;1259;67647;-66
2023/12/09 09:48:23;;;;;;;81.20;22.70;;;;;;;-2.75;100.00;99766.67;108995;1258;70168;-67
2023/12/09 09:51:15;;;;;;;87.60;24.50;;;;;;;-2.74;100.00;99762.65;108957;1258;59831;-68
2023/12/09 09:54:20;;;;;;;84.20;22.50;;;;;;;-2.70;100.00;99762.73;108967;1258;60156;-68
2023/12/09 09:57:08;;;;;;;87.70;23.80;;;;;;;-2.65;100.00;99755.30;108967;1258;72398;-70
2023/12/09 09:59:57;;;;;;;79.40;20.10;;;;;;;-2.64;100.00;99754.75;109004;1259;66603;-66
2023/12/09 10:02:49;;;;;;;69.30;22.50;;;;;;;-2.65;100.00;99756.35;108924;1259;72261;-67
2023/12/09 10:05:39;;;;;;;72.50;19.10;;;;;;;-2.70;100.00;99754.22;108961;1258;57272;-66
2023/12/09 10:08:25;;;;;;;82.00;22.40;;;;;;;-2.68;100.00;99750.69;108918;1258;61282;-66
2023/12/09 10:11:11;;;;;;;75.20;21.80;;;;;;;-2.67;100.00;99747.37;108933;1259;73508;-65
2023/12/09 10:13:58;;;;;;;75.60;20.80;;;;;;;-2.65;100.00;99745.39;109015;1259;66469;-68
2023/12/09 10:16:45;;;;;;;76.60;20.90;;;;;;;-2.64;100.00;99743.46;109010;1259;71278;-67
2023/12/09 10:19:35;;;;;;;65.00;19.80;;;;;;;-2.64;100.00;99739.46;108968;1258;59574;-68
2023/12/09 10:22:22;;;;;;;75.40;20.90;;;;;;;-2.67;100.00;99733.48;109016;1258;60302;-67
2023/12/09 10:25:08;;;;;;;83.40;24.00;;;;;;;-2.69;100.00;99730.58;108266;1259;1002870;-67
2023/12/09 10:27:56;;;;;;;79.60;22.20;;;;;;;-2.68;100.00;99724.81;108940;1260;67830;-65
2023/12/09 10:30:42;;;;;;;74.20;21.80;;;;;;;-2.64;100.00;99716.38;108958;1259;73568;-66
2023/12/09 10:33:30;;;;;;;69.90;18.50;;;;;;;-2.63;100.00;99715.45;108980;1260;58857;-65
2023/12/09 10:36:17;;;;;;;84.10;22.80;;;;;;;-2.62;100.00;99709.88;109007;1258;57854;-65
2023/12/09 10:39:08;;;;;;;86.70;25.00;;;;;;;-2.61;100.00;99701.48;109006;1259;72957;-67
2023/12/09 10:41:57;;;;;;;81.40;23.30;;;;;;;-2.54;100.00;99703.37;109013;1259;68662;-67
2023/12/09 10:44:44;;;;;;;75.80;22.60;;;;;;;-2.51;100.00;99701.57;108903;1258;72417;-66
2023/12/09 10:47:30;;;;;;;87.80;24.90;;;;;;;-2.49;100.00;99698.73;108226;1259;1002606;-67
2023/12/09 10:50:17;;;;;;;68.80;20.70;;;;;;;-2.48;100.00;99692.79;109052;1259;59004;-68
2023/12/09 10:53:05;;;;;;;76.30;22.40;;;;;;;-2.53;100.00;99690.16;108998;1260;72074;-66
2023/12/09 10:55:52;;;;;;;71.10;21.90;;;;;;;-2.52;100.00;99691.15;108895;1259;66776;-68
2023/12/09 10:58:40;;;;;;;75.20;23.50;;;;;;;-2.51;100.00;99687.32;109050;1259;73505;-64
2023/12/09 11:01:28;;;;;;;76.10;23.30;;;;;;;-2.48;100.00;99688.11;109028;1258;57559;-70
2023/12/09 11:04:15;;;;;;;68.00;21.70;;;;;;;-2.46;100.00;99688.04;108968;1259;60243;-70
2023/12/09 11:07:05;;;;;;;82.40;23.20;;;;;;;-2.45;100.00;99684.35;108892;1259;70960;-69
2023/12/09 11:09:52;;;;;;;82.20;24.30;;;;;;;-2.45;100.00;99676.17;108940;1260;69072;-68
2023/12/09 11:12:40;;;;;;;69.40;19.20;;;;;;;-2.45;100.00;99676.70;108931;1259;73752;-67
2023/12/09 11:15:33;;;;;;;79.70;21.70;;;;;;;-2.46;100.00;99675.51;108962;1260;58805;-66
2023/12/09 11:18:19;;;;;;;85.30;25.70;;;;;;;-2.49;100.00;99668.84;109033;1258;59065;-69
2023/12/09 11:21:08;;;;;;;93.20;27.90;;;;;;;-2.44;100.00;99675.46;109006;1260;72248;-70
2023/12/09 11:23:57;;;;;;;77.90;23.60;;;;;;;-2.43;100.00;99673.33;108942;1259;66346;-71
2023/12/09 11:26:45;;;;;;;80.40;24.10;;;;;;;-2.40;100.00;99671.17;108941;1258;72496;-65
2023/12/09 11:29:33;;;;;;;78.10;24.20;;;;;;;-2.35;100.00;99669.44;108963;1260;56945;-69
2023/12/09 11:32:20;;;;;;;88.20;26.20;;;;;;;-2.32;100.00;99663.98;108979;1259;61164;-67
2023/12/09 11:35:07;;;;;;;72.10;22.20;;;;;;;-2.28;100.00;99658.98;108992;1260;72165;-66
2023/12/09 11:37:57;;;;;;;83.70;22.50;;;;;;;-2.29;100.00;99653.97;108942;1258;67716;-68
2023/12/09 11:40:45;;;;;;;79.80;24.20;;;;;;;-2.27;100.00;99652.01;108931;1259;73815;-67
2023/12/09 11:43:31;;;;;;;84.60;25.00;;;;;;;-2.26;100.00;99650.55;108972;1259;57581;-69
2023/12/09 11:46:19;;;;;;;86.10;25.00;;;;;;;-2.26;100.00;99648.15;108928;1259;61818;-70
2023/12/09 11:49:07;;;;;;;83.80;25.90;;;;;;;-2.26;100.00;99647.10;109035;1259;73182;-68
2023/12/09 11:51:54;;;;;;;74.00;22.20;;;;;;;-2.25;100.00;99648.11;109024;1259;65933;-66
2023/12/09 11:54:42;;;;;;;90.50;25.90;;;;;;;-2.26;100.00;99650.91;108904;1258;73481;-68
2023/12/09 11:57:31;;;;;;;79.50;22.20;;;;;;;-2.26;100.00;99653.52;108881;1258;58448;-69
2023/12/09 12:00:18;;;;;;;86.20;24.00;;;;;;;-2.23;100.00;99650.33;109031;1258;61125;-68
2023/12/09 12:03:05;;;;;;;81.60;24.30;;;;;;;-2.20;100.00;99646.92;108914;1259;73300;-67
2023/12/09 12:05:51;;;;;;;75.80;22.30;;;;;;;-2.15;100.00;99644.14;109002;1258;68472;-67
2023/12/09 12:08:38;;;;;;;82.00;23.70;;;;;;;-2.13;100.00;99649.30;109021;1260;71426;-69
2023/12/09 12:11:25;;;;;;;77.70;24.10;;;;;;;-2.14;100.00;99646.17;108919;1260;56983;-66
2023/12/09 12:14:11;;;;;;;86.80;25.60;;;;;;;-2.14;100.00;99646.55;108920;1262;58836;-68
2023/12/09 12:17:01;;;;;;;83.90;25.50;;;;;;;-2.15;100.00;99644.83;109023;1259;73107;-66
2023/12/09 12:19:47;;;;;;;86.50;22.80;;;;;;;-2.15;100.00;99641.89;108958;1258;67485;-71
2023/12/09 12:22:34;;;;;;;85.20;26.50;;;;;;;-2.18;100.00;99644.75;108911;1258;71684;-67
2023/12/09 12:25:25;;;;;;;83.30;23.60;;;;;;;-2.16;100.00;99643.33;109070;1259;58493;-67
2023/12/09 12:28:14;;;;;;;75.40;22.10;;;;;;;-2.13;100.00;99637.83;108976;1259;60406;-69
2023/12/09 12:31:00;;;;;;;85.40;25.80;;;;;;;-2.10;100.00;99635.81;108895;1260;71723;-67